sensor_id;sensor_type;location;lat;lon;timestamp;P1;durP1;ratioP1;P2;durP2;ratioP2
39874;SDS011;25547;52.530;13.194;2023-03-21T00:01:39;12.88;;;6.40;;
39874;SDS011;25547;52.530;13.194;2023-03-21T00:04:04;13.52;;;8.35;;
39874;SDS011;25547;52.530;13.194;2023-03-21T00:06:30;8.25;;;6.47;;
39874;SDS011;25547;52.530;13.194;2023-03-21T00:09:04;7.25;;;6.30;;
39874;SDS011;25547;52.530;13.194;2023-03-21T00:11:30;9.60;;;6.65;;
39874;SDS011;25547;52.530;13.194;2023-03-21T00:13:58;9.43;;;6.13;;
39874;SDS011;25547;52.530;13.194;2023-03-21T00:16:26;9.60;;;6.75;;
39874;SDS011;25547;52.530;13.194;2023-03-21T00:18:54;8.20;;;6.55;;
39874;SDS011;25547;52.530;13.194;2023-03-21T00:21:22;7.93;;;6.55;;
39874;SDS011;25547;52.530;13.194;2023-03-21T00:23:52;9.93;;;6.47;;
39874;SDS011;25547;52.530;13.194;2023-03-21T00:26:21;11.95;;;6.97;;
39874;SDS011;25547;52.530;13.194;2023-03-21T00:28:47;9.75;;;7.32;;
39874;SDS011;25547;52.530;13.194;2023-03-21T00:31:15;8.88;;;7.85;;
39874;SDS011;25547;52.530;13.194;2023-03-21T00:33:41;10.13;;;6.60;;
39874;SDS011;25547;52.530;13.194;2023-03-21T00:36:07;11.63;;;7.07;;
39874;SDS011;25547;52.530;13.194;2023-03-21T00:38:34;12.50;;;7.80;;
39874;SDS011;25547;52.530;13.194;2023-03-21T00:41:03;12.38;;;9.20;;
39874;SDS011;25547;52.530;13.194;2023-03-21T00:43:33;12.50;;;7.95;;
39874;SDS011;25547;52.530;13.194;2023-03-21T00:46:00;12.27;;;8.05;;
39874;SDS011;25547;52.530;13.194;2023-03-21T00:48:28;10.93;;;8.10;;
39874;SDS011;25547;52.530;13.194;2023-03-21T00:50:56;12.65;;;7.78;;
39874;SDS011;25547;52.530;13.194;2023-03-21T00:53:23;14.65;;;8.32;;
39874;SDS011;25547;52.530;13.194;2023-03-21T00:55:49;11.60;;;7.95;;
39874;SDS011;25547;52.530;13.194;2023-03-21T00:58:15;11.15;;;7.25;;
39874;SDS011;25547;52.530;13.194;2023-03-21T01:00:42;12.82;;;8.45;;
39874;SDS011;25547;52.530;13.194;2023-03-21T01:03:09;10.88;;;7.20;;
39874;SDS011;25547;52.530;13.194;2023-03-21T01:05:38;15.95;;;8.23;;
39874;SDS011;25547;52.530;13.194;2023-03-21T01:08:26;12.93;;;7.60;;
39874;SDS011;25547;52.530;13.194;2023-03-21T01:10:52;11.73;;;7.78;;
39874;SDS011;25547;52.530;13.194;2023-03-21T01:13:20;14.07;;;8.88;;
39874;SDS011;25547;52.530;13.194;2023-03-21T01:15:48;14.65;;;8.45;;
39874;SDS011;25547;52.530;13.194;2023-03-21T01:18:19;12.63;;;8.35;;
39874;SDS011;25547;52.530;13.194;2023-03-21T01:20:51;15.75;;;8.55;;
39874;SDS011;25547;52.530;13.194;2023-03-21T01:23:25;13.88;;;9.95;;
39874;SDS011;25547;52.530;13.194;2023-03-21T01:25:52;14.52;;;10.00;;
39874;SDS011;25547;52.530;13.194;2023-03-21T01:28:21;14.20;;;10.95;;
39874;SDS011;25547;52.530;13.194;2023-03-21T01:30:49;17.30;;;11.63;;
39874;SDS011;25547;52.530;13.194;2023-03-21T01:33:18;16.88;;;13.32;;
39874;SDS011;25547;52.530;13.194;2023-03-21T01:35:45;17.85;;;12.93;;
39874;SDS011;25547;52.530;13.194;2023-03-21T01:38:12;20.83;;;13.55;;
39874;SDS011;25547;52.530;13.194;2023-03-21T01:40:38;19.70;;;13.63;;
39874;SDS011;25547;52.530;13.194;2023-03-21T01:43:16;20.35;;;14.15;;
39874;SDS011;25547;52.530;13.194;2023-03-21T01:48:54;18.65;;;14.65;;
39874;SDS011;25547;52.530;13.194;2023-03-21T01:51:29;22.02;;;14.75;;
39874;SDS011;25547;52.530;13.194;2023-03-21T01:54:02;21.30;;;13.70;;
39874;SDS011;25547;52.530;13.194;2023-03-21T01:56:36;21.08;;;14.13;;
39874;SDS011;25547;52.530;13.194;2023-03-21T01:59:19;18.95;;;14.82;;
39874;SDS011;25547;52.530;13.194;2023-03-21T02:01:54;20.60;;;15.23;;
39874;SDS011;25547;52.530;13.194;2023-03-21T02:04:25;22.40;;;16.20;;
39874;SDS011;25547;52.530;13.194;2023-03-21T02:06:59;22.20;;;16.63;;
39874;SDS011;25547;52.530;13.194;2023-03-21T02:09:36;29.02;;;16.83;;
39874;SDS011;25547;52.530;13.194;2023-03-21T02:12:06;23.25;;;15.82;;
39874;SDS011;25547;52.530;13.194;2023-03-21T02:14:35;25.20;;;17.30;;
39874;SDS011;25547;52.530;13.194;2023-03-21T02:17:14;25.10;;;16.25;;
39874;SDS011;25547;52.530;13.194;2023-03-21T02:28:02;24.73;;;16.17;;
39874;SDS011;25547;52.530;13.194;2023-03-21T02:49:27;24.50;;;16.63;;
39874;SDS011;25547;52.530;13.194;2023-03-21T02:51:58;23.80;;;14.80;;
39874;SDS011;25547;52.530;13.194;2023-03-21T02:54:26;23.15;;;16.05;;
39874;SDS011;25547;52.530;13.194;2023-03-21T02:56:54;23.55;;;15.40;;
39874;SDS011;25547;52.530;13.194;2023-03-21T02:59:23;22.33;;;15.77;;
39874;SDS011;25547;52.530;13.194;2023-03-21T03:01:50;21.08;;;16.50;;
39874;SDS011;25547;52.530;13.194;2023-03-21T03:04:22;27.33;;;16.42;;
39874;SDS011;25547;52.530;13.194;2023-03-21T03:07:07;23.85;;;16.10;;
39874;SDS011;25547;52.530;13.194;2023-03-21T03:23:47;27.67;;;17.13;;
39874;SDS011;25547;52.530;13.194;2023-03-21T03:27:01;39.17;;;19.13;;
39874;SDS011;25547;52.530;13.194;2023-03-21T03:29:19;30.20;;;18.17;;
39874;SDS011;25547;52.530;13.194;2023-03-21T03:31:52;26.17;;;17.38;;
39874;SDS011;25547;52.530;13.194;2023-03-21T03:34:23;27.48;;;15.80;;
39874;SDS011;25547;52.530;13.194;2023-03-21T03:36:58;25.85;;;16.98;;
39874;SDS011;25547;52.530;13.194;2023-03-21T03:39:49;26.70;;;16.67;;
39874;SDS011;25547;52.530;13.194;2023-03-21T03:42:33;24.10;;;15.07;;
39874;SDS011;25547;52.530;13.194;2023-03-21T03:45:03;31.27;;;16.27;;
39874;SDS011;25547;52.530;13.194;2023-03-21T03:47:41;25.23;;;16.42;;
39874;SDS011;25547;52.530;13.194;2023-03-21T03:50:13;26.15;;;16.02;;
39874;SDS011;25547;52.530;13.194;2023-03-21T03:55:42;36.65;;;18.38;;
39874;SDS011;25547;52.530;13.194;2023-03-21T03:58:08;26.80;;;16.02;;
39874;SDS011;25547;52.530;13.194;2023-03-21T04:00:34;31.63;;;16.77;;
39874;SDS011;25547;52.530;13.194;2023-03-21T04:03:01;26.40;;;15.63;;
39874;SDS011;25547;52.530;13.194;2023-03-21T04:05:27;28.55;;;17.10;;
39874;SDS011;25547;52.530;13.194;2023-03-21T04:07:53;25.40;;;16.75;;
39874;SDS011;25547;52.530;13.194;2023-03-21T04:10:19;27.20;;;16.60;;
39874;SDS011;25547;52.530;13.194;2023-03-21T04:12:45;28.92;;;15.02;;
39874;SDS011;25547;52.530;13.194;2023-03-21T04:15:11;24.10;;;14.98;;
39874;SDS011;25547;52.530;13.194;2023-03-21T04:17:40;27.20;;;16.42;;
39874;SDS011;25547;52.530;13.194;2023-03-21T04:20:05;28.50;;;16.48;;
39874;SDS011;25547;52.530;13.194;2023-03-21T04:22:32;25.40;;;15.52;;
39874;SDS011;25547;52.530;13.194;2023-03-21T04:25:02;23.13;;;14.45;;
39874;SDS011;25547;52.530;13.194;2023-03-21T04:27:32;28.55;;;15.02;;
39874;SDS011;25547;52.530;13.194;2023-03-21T04:29:57;31.88;;;17.02;;
39874;SDS011;25547;52.530;13.194;2023-03-21T04:32:26;24.48;;;14.88;;
39874;SDS011;25547;52.530;13.194;2023-03-21T04:34:52;22.67;;;15.30;;
39874;SDS011;25547;52.530;13.194;2023-03-21T04:37:21;25.25;;;15.05;;
39874;SDS011;25547;52.530;13.194;2023-03-21T04:39:48;23.55;;;16.15;;
39874;SDS011;25547;52.530;13.194;2023-03-21T04:42:15;22.25;;;14.40;;
39874;SDS011;25547;52.530;13.194;2023-03-21T04:44:45;28.08;;;16.50;;
39874;SDS011;25547;52.530;13.194;2023-03-21T04:47:11;23.58;;;15.38;;
39874;SDS011;25547;52.530;13.194;2023-03-21T04:49:42;26.23;;;15.27;;
39874;SDS011;25547;52.530;13.194;2023-03-21T04:52:13;25.33;;;16.13;;
39874;SDS011;25547;52.530;13.194;2023-03-21T04:54:41;29.73;;;16.50;;
39874;SDS011;25547;52.530;13.194;2023-03-21T04:57:07;26.00;;;16.00;;
39874;SDS011;25547;52.530;13.194;2023-03-21T04:59:33;31.30;;;17.05;;
39874;SDS011;25547;52.530;13.194;2023-03-21T05:01:59;25.95;;;15.45;;
39874;SDS011;25547;52.530;13.194;2023-03-21T05:04:26;26.55;;;15.55;;
39874;SDS011;25547;52.530;13.194;2023-03-21T05:06:53;28.10;;;15.63;;
39874;SDS011;25547;52.530;13.194;2023-03-21T05:09:23;29.45;;;16.90;;
39874;SDS011;25547;52.530;13.194;2023-03-21T05:11:49;23.85;;;15.60;;
39874;SDS011;25547;52.530;13.194;2023-03-21T05:14:23;27.10;;;16.95;;
39874;SDS011;25547;52.530;13.194;2023-03-21T05:16:53;29.75;;;16.65;;
39874;SDS011;25547;52.530;13.194;2023-03-21T05:19:24;27.35;;;16.50;;
39874;SDS011;25547;52.530;13.194;2023-03-21T05:21:59;28.15;;;16.60;;
39874;SDS011;25547;52.530;13.194;2023-03-21T05:24:29;31.55;;;16.60;;
39874;SDS011;25547;52.530;13.194;2023-03-21T05:26:57;28.17;;;15.95;;
39874;SDS011;25547;52.530;13.194;2023-03-21T05:29:28;29.85;;;16.65;;
39874;SDS011;25547;52.530;13.194;2023-03-21T05:31:59;28.35;;;16.15;;
39874;SDS011;25547;52.530;13.194;2023-03-21T05:34:26;25.65;;;17.20;;
39874;SDS011;25547;52.530;13.194;2023-03-21T05:36:52;27.15;;;15.98;;
39874;SDS011;25547;52.530;13.194;2023-03-21T05:39:20;23.73;;;16.45;;
39874;SDS011;25547;52.530;13.194;2023-03-21T05:41:48;27.83;;;16.27;;
39874;SDS011;25547;52.530;13.194;2023-03-21T05:44:14;27.45;;;15.93;;
39874;SDS011;25547;52.530;13.194;2023-03-21T05:46:40;26.92;;;16.42;;
39874;SDS011;25547;52.530;13.194;2023-03-21T05:49:08;33.17;;;16.05;;
39874;SDS011;25547;52.530;13.194;2023-03-21T05:51:37;28.38;;;15.23;;
39874;SDS011;25547;52.530;13.194;2023-03-21T05:54:03;24.23;;;15.88;;
39874;SDS011;25547;52.530;13.194;2023-03-21T05:56:29;25.08;;;15.25;;
39874;SDS011;25547;52.530;13.194;2023-03-21T05:58:54;25.50;;;15.93;;
39874;SDS011;25547;52.530;13.194;2023-03-21T06:01:22;29.55;;;16.70;;
39874;SDS011;25547;52.530;13.194;2023-03-21T06:03:48;28.15;;;16.73;;
39874;SDS011;25547;52.530;13.194;2023-03-21T06:06:14;24.38;;;15.65;;
39874;SDS011;25547;52.530;13.194;2023-03-21T06:08:40;27.05;;;15.68;;
39874;SDS011;25547;52.530;13.194;2023-03-21T06:11:06;32.10;;;17.63;;
39874;SDS011;25547;52.530;13.194;2023-03-21T06:13:44;24.58;;;14.95;;
39874;SDS011;25547;52.530;13.194;2023-03-21T06:16:14;27.20;;;16.83;;
39874;SDS011;25547;52.530;13.194;2023-03-21T06:18:41;29.73;;;15.10;;
39874;SDS011;25547;52.530;13.194;2023-03-21T06:21:07;28.92;;;17.20;;
39874;SDS011;25547;52.530;13.194;2023-03-21T06:23:33;28.98;;;16.05;;
39874;SDS011;25547;52.530;13.194;2023-03-21T06:26:01;32.63;;;17.13;;
39874;SDS011;25547;52.530;13.194;2023-03-21T06:28:27;27.08;;;16.73;;
39874;SDS011;25547;52.530;13.194;2023-03-21T06:30:56;29.45;;;18.20;;
39874;SDS011;25547;52.530;13.194;2023-03-21T06:33:21;26.58;;;15.65;;
39874;SDS011;25547;52.530;13.194;2023-03-21T06:35:53;30.35;;;17.48;;
39874;SDS011;25547;52.530;13.194;2023-03-21T06:38:21;27.42;;;17.63;;
39874;SDS011;25547;52.530;13.194;2023-03-21T06:40:48;31.50;;;17.52;;
39874;SDS011;25547;52.530;13.194;2023-03-21T06:43:14;30.15;;;17.45;;
39874;SDS011;25547;52.530;13.194;2023-03-21T06:45:40;26.73;;;16.48;;
39874;SDS011;25547;52.530;13.194;2023-03-21T06:48:06;30.77;;;18.77;;
39874;SDS011;25547;52.530;13.194;2023-03-21T06:50:32;31.92;;;16.55;;
39874;SDS011;25547;52.530;13.194;2023-03-21T06:52:57;32.60;;;16.85;;
39874;SDS011;25547;52.530;13.194;2023-03-21T06:55:26;30.02;;;19.17;;
39874;SDS011;25547;52.530;13.194;2023-03-21T06:57:55;32.60;;;16.50;;
39874;SDS011;25547;52.530;13.194;2023-03-21T07:00:21;28.45;;;18.00;;
39874;SDS011;25547;52.530;13.194;2023-03-21T07:02:50;29.23;;;18.30;;
39874;SDS011;25547;52.530;13.194;2023-03-21T07:05:18;29.35;;;18.38;;
39874;SDS011;25547;52.530;13.194;2023-03-21T07:07:44;33.33;;;18.67;;
39874;SDS011;25547;52.530;13.194;2023-03-21T07:10:10;31.42;;;19.08;;
39874;SDS011;25547;52.530;13.194;2023-03-21T07:12:38;34.50;;;20.38;;
39874;SDS011;25547;52.530;13.194;2023-03-21T07:15:07;36.78;;;22.33;;
39874;SDS011;25547;52.530;13.194;2023-03-21T07:17:35;34.90;;;20.05;;
39874;SDS011;25547;52.530;13.194;2023-03-21T07:20:01;34.00;;;19.20;;
39874;SDS011;25547;52.530;13.194;2023-03-21T07:22:30;31.80;;;18.65;;
39874;SDS011;25547;52.530;13.194;2023-03-21T07:24:56;34.33;;;19.45;;
39874;SDS011;25547;52.530;13.194;2023-03-21T07:27:21;32.72;;;18.65;;
39874;SDS011;25547;52.530;13.194;2023-03-21T07:29:47;32.15;;;17.55;;
39874;SDS011;25547;52.530;13.194;2023-03-21T07:32:15;31.38;;;18.20;;
39874;SDS011;25547;52.530;13.194;2023-03-21T07:34:40;30.38;;;17.90;;
39874;SDS011;25547;52.530;13.194;2023-03-21T07:37:08;33.10;;;18.75;;
39874;SDS011;25547;52.530;13.194;2023-03-21T07:39:34;30.75;;;17.42;;
39874;SDS011;25547;52.530;13.194;2023-03-21T07:42:02;33.95;;;19.08;;
39874;SDS011;25547;52.530;13.194;2023-03-21T07:44:28;34.53;;;18.63;;
39874;SDS011;25547;52.530;13.194;2023-03-21T07:46:57;32.47;;;19.30;;
39874;SDS011;25547;52.530;13.194;2023-03-21T07:49:25;33.08;;;18.75;;
39874;SDS011;25547;52.530;13.194;2023-03-21T07:51:51;38.85;;;20.42;;
39874;SDS011;25547;52.530;13.194;2023-03-21T07:54:17;29.42;;;18.52;;
39874;SDS011;25547;52.530;13.194;2023-03-21T07:56:46;33.67;;;19.83;;
39874;SDS011;25547;52.530;13.194;2023-03-21T07:59:11;32.15;;;18.85;;
39874;SDS011;25547;52.530;13.194;2023-03-21T08:01:39;30.33;;;18.92;;
39874;SDS011;25547;52.530;13.194;2023-03-21T08:04:05;35.75;;;20.17;;
39874;SDS011;25547;52.530;13.194;2023-03-21T08:06:32;36.55;;;20.23;;
39874;SDS011;25547;52.530;13.194;2023-03-21T08:08:58;32.20;;;18.85;;
39874;SDS011;25547;52.530;13.194;2023-03-21T08:11:27;32.08;;;19.38;;
39874;SDS011;25547;52.530;13.194;2023-03-21T08:13:55;34.80;;;19.60;;
39874;SDS011;25547;52.530;13.194;2023-03-21T08:16:25;31.00;;;18.10;;
39874;SDS011;25547;52.530;13.194;2023-03-21T08:18:51;32.35;;;18.45;;
39874;SDS011;25547;52.530;13.194;2023-03-21T08:21:19;29.90;;;18.20;;
39874;SDS011;25547;52.530;13.194;2023-03-21T08:23:45;31.50;;;17.58;;
39874;SDS011;25547;52.530;13.194;2023-03-21T08:26:10;31.60;;;18.67;;
39874;SDS011;25547;52.530;13.194;2023-03-21T08:28:42;30.45;;;18.40;;
39874;SDS011;25547;52.530;13.194;2023-03-21T08:31:08;34.20;;;18.05;;
39874;SDS011;25547;52.530;13.194;2023-03-21T08:33:35;28.98;;;16.70;;
39874;SDS011;25547;52.530;13.194;2023-03-21T08:36:04;30.48;;;16.85;;
39874;SDS011;25547;52.530;13.194;2023-03-21T08:38:30;28.80;;;16.40;;
39874;SDS011;25547;52.530;13.194;2023-03-21T08:41:00;33.95;;;18.83;;
39874;SDS011;25547;52.530;13.194;2023-03-21T08:43:27;28.60;;;16.27;;
39874;SDS011;25547;52.530;13.194;2023-03-21T08:45:54;30.10;;;15.70;;
39874;SDS011;25547;52.530;13.194;2023-03-21T08:48:20;29.35;;;17.40;;
39874;SDS011;25547;52.530;13.194;2023-03-21T08:50:48;32.97;;;17.98;;
39874;SDS011;25547;52.530;13.194;2023-03-21T08:53:16;28.20;;;17.35;;
39874;SDS011;25547;52.530;13.194;2023-03-21T08:55:42;32.47;;;17.30;;
39874;SDS011;25547;52.530;13.194;2023-03-21T08:58:09;26.40;;;15.48;;
39874;SDS011;25547;52.530;13.194;2023-03-21T09:00:35;29.13;;;16.20;;
39874;SDS011;25547;52.530;13.194;2023-03-21T09:03:03;24.38;;;16.02;;
39874;SDS011;25547;52.530;13.194;2023-03-21T09:05:30;27.98;;;15.70;;
39874;SDS011;25547;52.530;13.194;2023-03-21T09:07:56;24.27;;;14.20;;
39874;SDS011;25547;52.530;13.194;2023-03-21T09:10:22;30.52;;;16.60;;
39874;SDS011;25547;52.530;13.194;2023-03-21T09:12:51;30.67;;;16.75;;
39874;SDS011;25547;52.530;13.194;2023-03-21T09:15:18;29.20;;;15.38;;
39874;SDS011;25547;52.530;13.194;2023-03-21T09:17:45;24.10;;;15.05;;
39874;SDS011;25547;52.530;13.194;2023-03-21T09:20:16;25.55;;;15.80;;
39874;SDS011;25547;52.530;13.194;2023-03-21T09:22:46;26.08;;;15.90;;
39874;SDS011;25547;52.530;13.194;2023-03-21T09:25:13;27.77;;;15.52;;
39874;SDS011;25547;52.530;13.194;2023-03-21T09:27:40;26.48;;;15.50;;
39874;SDS011;25547;52.530;13.194;2023-03-21T09:30:10;28.33;;;15.68;;
39874;SDS011;25547;52.530;13.194;2023-03-21T09:32:43;25.65;;;14.45;;
39874;SDS011;25547;52.530;13.194;2023-03-21T09:35:16;25.48;;;14.23;;
39874;SDS011;25547;52.530;13.194;2023-03-21T09:37:44;23.63;;;14.48;;
39874;SDS011;25547;52.530;13.194;2023-03-21T09:43:17;25.00;;;13.82;;
39874;SDS011;25547;52.530;13.194;2023-03-21T09:46:41;26.02;;;14.63;;
39874;SDS011;25547;52.530;13.194;2023-03-21T09:49:05;25.45;;;14.40;;
39874;SDS011;25547;52.530;13.194;2023-03-21T09:51:40;28.17;;;15.13;;
39874;SDS011;25547;52.530;13.194;2023-03-21T09:54:20;23.60;;;15.15;;
39874;SDS011;25547;52.530;13.194;2023-03-21T09:56:54;24.77;;;14.73;;
39874;SDS011;25547;52.530;13.194;2023-03-21T09:59:31;26.38;;;14.88;;
39874;SDS011;25547;52.530;13.194;2023-03-21T10:02:02;26.63;;;14.20;;
39874;SDS011;25547;52.530;13.194;2023-03-21T10:04:41;27.30;;;14.18;;
39874;SDS011;25547;52.530;13.194;2023-03-21T10:07:10;22.65;;;12.95;;
39874;SDS011;25547;52.530;13.194;2023-03-21T10:09:42;20.67;;;13.63;;
39874;SDS011;25547;52.530;13.194;2023-03-21T10:12:13;25.90;;;14.98;;
39874;SDS011;25547;52.530;13.194;2023-03-21T10:14:45;26.30;;;14.65;;
39874;SDS011;25547;52.530;13.194;2023-03-21T10:20:13;24.85;;;13.45;;
39874;SDS011;25547;52.530;13.194;2023-03-21T10:22:42;23.63;;;12.18;;
39874;SDS011;25547;52.530;13.194;2023-03-21T10:25:12;19.83;;;13.82;;
39874;SDS011;25547;52.530;13.194;2023-03-21T10:27:41;22.80;;;13.20;;
39874;SDS011;25547;52.530;13.194;2023-03-21T10:30:08;22.00;;;12.10;;
39874;SDS011;25547;52.530;13.194;2023-03-21T10:32:45;23.13;;;13.48;;
39874;SDS011;25547;52.530;13.194;2023-03-21T10:35:11;21.42;;;12.45;;
39874;SDS011;25547;52.530;13.194;2023-03-21T10:37:42;20.75;;;12.10;;
39874;SDS011;25547;52.530;13.194;2023-03-21T10:40:13;18.42;;;11.40;;
39874;SDS011;25547;52.530;13.194;2023-03-21T10:42:40;19.85;;;12.90;;
39874;SDS011;25547;52.530;13.194;2023-03-21T10:45:12;23.77;;;13.05;;
39874;SDS011;25547;52.530;13.194;2023-03-21T10:47:45;17.80;;;11.45;;
39874;SDS011;25547;52.530;13.194;2023-03-21T10:50:19;18.33;;;12.25;;
39874;SDS011;25547;52.530;13.194;2023-03-21T10:52:49;20.90;;;12.50;;
39874;SDS011;25547;52.530;13.194;2023-03-21T10:55:30;19.02;;;11.07;;
39874;SDS011;25547;52.530;13.194;2023-03-21T10:58:01;18.52;;;12.02;;
39874;SDS011;25547;52.530;13.194;2023-03-21T11:00:41;18.60;;;10.80;;
39874;SDS011;25547;52.530;13.194;2023-03-21T11:03:22;14.70;;;10.57;;
39874;SDS011;25547;52.530;13.194;2023-03-21T11:06:01;23.23;;;12.77;;
39874;SDS011;25547;52.530;13.194;2023-03-21T11:09:16;19.55;;;11.20;;
39874;SDS011;25547;52.530;13.194;2023-03-21T11:11:42;20.42;;;11.98;;
39874;SDS011;25547;52.530;13.194;2023-03-21T11:14:26;20.90;;;11.45;;
39874;SDS011;25547;52.530;13.194;2023-03-21T11:19:53;16.52;;;10.25;;
39874;SDS011;25547;52.530;13.194;2023-03-21T11:22:23;15.07;;;9.80;;
39874;SDS011;25547;52.530;13.194;2023-03-21T11:24:55;15.35;;;10.35;;
39874;SDS011;25547;52.530;13.194;2023-03-21T11:27:24;16.80;;;9.93;;
39874;SDS011;25547;52.530;13.194;2023-03-21T11:29:53;19.83;;;10.83;;
39874;SDS011;25547;52.530;13.194;2023-03-21T11:32:34;14.68;;;8.32;;
39874;SDS011;25547;52.530;13.194;2023-03-21T11:35:13;14.90;;;9.98;;
39874;SDS011;25547;52.530;13.194;2023-03-21T11:37:49;13.95;;;8.88;;
39874;SDS011;25547;52.530;13.194;2023-03-21T11:40:24;19.25;;;10.70;;
39874;SDS011;25547;52.530;13.194;2023-03-21T11:42:51;17.92;;;9.57;;
39874;SDS011;25547;52.530;13.194;2023-03-21T11:45:22;17.30;;;8.35;;
39874;SDS011;25547;52.530;13.194;2023-03-21T11:47:52;16.05;;;8.90;;
39874;SDS011;25547;52.530;13.194;2023-03-21T11:53:15;16.40;;;9.70;;
39874;SDS011;25547;52.530;13.194;2023-03-21T11:58:15;16.88;;;9.35;;
39874;SDS011;25547;52.530;13.194;2023-03-21T12:06:39;14.90;;;7.85;;
39874;SDS011;25547;52.530;13.194;2023-03-21T12:14:38;14.32;;;8.75;;
39874;SDS011;25547;52.530;13.194;2023-03-21T12:39:45;11.77;;;7.45;;
39874;SDS011;25547;52.530;13.194;2023-03-21T12:45:07;10.55;;;5.88;;
39874;SDS011;25547;52.530;13.194;2023-03-21T12:47:34;13.45;;;6.90;;
39874;SDS011;25547;52.530;13.194;2023-03-21T12:50:43;11.57;;;6.65;;
39874;SDS011;25547;52.530;13.194;2023-03-21T12:52:57;10.32;;;6.70;;
39874;SDS011;25547;52.530;13.194;2023-03-21T12:55:31;14.30;;;6.63;;
39874;SDS011;25547;52.530;13.194;2023-03-21T13:11:04;11.80;;;6.65;;
39874;SDS011;25547;52.530;13.194;2023-03-21T13:13:35;9.55;;;5.90;;
39874;SDS011;25547;52.530;13.194;2023-03-21T13:24:40;9.80;;;5.10;;
39874;SDS011;25547;52.530;13.194;2023-03-21T13:27:31;12.18;;;6.40;;
39874;SDS011;25547;52.530;13.194;2023-03-21T13:30:03;12.65;;;6.80;;
39874;SDS011;25547;52.530;13.194;2023-03-21T13:32:39;11.52;;;6.95;;
39874;SDS011;25547;52.530;13.194;2023-03-21T13:37:54;10.18;;;6.53;;
39874;SDS011;25547;52.530;13.194;2023-03-21T13:43:38;10.00;;;5.45;;
39874;SDS011;25547;52.530;13.194;2023-03-21T13:46:12;15.27;;;7.03;;
39874;SDS011;25547;52.530;13.194;2023-03-21T14:04:37;8.45;;;4.60;;
39874;SDS011;25547;52.530;13.194;2023-03-21T14:07:22;9.60;;;5.28;;
39874;SDS011;25547;52.530;13.194;2023-03-21T14:09:51;12.68;;;6.47;;
39874;SDS011;25547;52.530;13.194;2023-03-21T14:12:23;9.27;;;5.22;;
39874;SDS011;25547;52.530;13.194;2023-03-21T14:15:00;7.95;;;5.47;;
39874;SDS011;25547;52.530;13.194;2023-03-21T14:17:31;9.88;;;5.50;;
39874;SDS011;25547;52.530;13.194;2023-03-21T14:19:59;10.90;;;6.22;;
39874;SDS011;25547;52.530;13.194;2023-03-21T14:22:34;9.32;;;5.10;;
39874;SDS011;25547;52.530;13.194;2023-03-21T14:25:01;9.63;;;6.38;;
39874;SDS011;25547;52.530;13.194;2023-03-21T14:27:30;9.60;;;5.20;;
39874;SDS011;25547;52.530;13.194;2023-03-21T14:29:58;11.75;;;5.82;;
39874;SDS011;25547;52.530;13.194;2023-03-21T14:32:26;9.95;;;5.80;;
39874;SDS011;25547;52.530;13.194;2023-03-21T14:34:54;6.78;;;4.47;;
39874;SDS011;25547;52.530;13.194;2023-03-21T14:40:19;9.55;;;3.90;;
39874;SDS011;25547;52.530;13.194;2023-03-21T14:42:51;6.88;;;4.10;;
39874;SDS011;25547;52.530;13.194;2023-03-21T14:47:56;7.50;;;4.13;;
39874;SDS011;25547;52.530;13.194;2023-03-21T14:53:05;8.63;;;5.32;;
39874;SDS011;25547;52.530;13.194;2023-03-21T14:58:11;8.70;;;5.03;;
39874;SDS011;25547;52.530;13.194;2023-03-21T15:00:45;9.48;;;4.93;;
39874;SDS011;25547;52.530;13.194;2023-03-21T15:03:14;8.85;;;5.18;;
39874;SDS011;25547;52.530;13.194;2023-03-21T15:05:42;9.23;;;5.07;;
39874;SDS011;25547;52.530;13.194;2023-03-21T15:10:40;11.65;;;5.10;;
39874;SDS011;25547;52.530;13.194;2023-03-21T15:13:13;5.05;;;3.65;;
39874;SDS011;25547;52.530;13.194;2023-03-21T15:15:41;5.40;;;3.70;;
39874;SDS011;25547;52.530;13.194;2023-03-21T15:18:07;8.13;;;4.70;;
39874;SDS011;25547;52.530;13.194;2023-03-21T15:20:36;8.93;;;4.30;;
39874;SDS011;25547;52.530;13.194;2023-03-21T15:23:15;9.57;;;4.13;;
39874;SDS011;25547;52.530;13.194;2023-03-21T15:25:50;4.88;;;4.10;;
39874;SDS011;25547;52.530;13.194;2023-03-21T15:28:20;10.32;;;5.40;;
39874;SDS011;25547;52.530;13.194;2023-03-21T15:30:48;9.77;;;4.00;;
39874;SDS011;25547;52.530;13.194;2023-03-21T15:33:16;13.02;;;4.55;;
39874;SDS011;25547;52.530;13.194;2023-03-21T15:35:44;6.95;;;4.13;;
39874;SDS011;25547;52.530;13.194;2023-03-21T15:43:47;7.63;;;4.20;;
39874;SDS011;25547;52.530;13.194;2023-03-21T15:51:41;10.82;;;5.03;;
39874;SDS011;25547;52.530;13.194;2023-03-21T15:54:13;5.82;;;3.92;;
39874;SDS011;25547;52.530;13.194;2023-03-21T15:56:41;7.20;;;4.72;;
39874;SDS011;25547;52.530;13.194;2023-03-21T15:59:15;8.35;;;4.88;;
39874;SDS011;25547;52.530;13.194;2023-03-21T16:01:45;9.93;;;4.07;;
39874;SDS011;25547;52.530;13.194;2023-03-21T16:04:12;10.63;;;4.85;;
39874;SDS011;25547;52.530;13.194;2023-03-21T16:09:23;7.68;;;3.85;;
39874;SDS011;25547;52.530;13.194;2023-03-21T16:11:50;6.55;;;4.28;;
39874;SDS011;25547;52.530;13.194;2023-03-21T16:14:17;12.45;;;4.07;;
39874;SDS011;25547;52.530;13.194;2023-03-21T16:16:47;7.78;;;4.32;;
39874;SDS011;25547;52.530;13.194;2023-03-21T16:19:13;13.40;;;3.75;;
39874;SDS011;25547;52.530;13.194;2023-03-21T16:21:44;7.20;;;4.22;;
39874;SDS011;25547;52.530;13.194;2023-03-21T16:26:40;7.03;;;3.60;;
39874;SDS011;25547;52.530;13.194;2023-03-21T16:29:12;8.85;;;3.75;;
39874;SDS011;25547;52.530;13.194;2023-03-21T16:31:39;6.13;;;3.58;;
39874;SDS011;25547;52.530;13.194;2023-03-21T16:34:08;8.85;;;4.45;;
39874;SDS011;25547;52.530;13.194;2023-03-21T16:36:38;5.80;;;4.20;;
39874;SDS011;25547;52.530;13.194;2023-03-21T16:39:21;6.05;;;4.60;;
39874;SDS011;25547;52.530;13.194;2023-03-21T16:41:51;10.85;;;4.05;;
39874;SDS011;25547;52.530;13.194;2023-03-21T16:44:17;8.55;;;4.57;;
39874;SDS011;25547;52.530;13.194;2023-03-21T16:46:44;8.70;;;4.75;;
39874;SDS011;25547;52.530;13.194;2023-03-21T16:49:22;8.88;;;5.05;;
39874;SDS011;25547;52.530;13.194;2023-03-21T16:51:54;7.75;;;4.22;;
39874;SDS011;25547;52.530;13.194;2023-03-21T16:54:21;9.95;;;5.03;;
39874;SDS011;25547;52.530;13.194;2023-03-21T16:56:50;9.20;;;4.57;;
39874;SDS011;25547;52.530;13.194;2023-03-21T16:59:20;7.78;;;4.32;;
39874;SDS011;25547;52.530;13.194;2023-03-21T17:01:46;8.48;;;5.32;;
39874;SDS011;25547;52.530;13.194;2023-03-21T17:04:15;11.70;;;5.63;;
39874;SDS011;25547;52.530;13.194;2023-03-21T17:06:46;9.47;;;5.70;;
39874;SDS011;25547;52.530;13.194;2023-03-21T17:09:14;8.15;;;6.32;;
39874;SDS011;25547;52.530;13.194;2023-03-21T17:11:45;34.80;;;17.08;;
39874;SDS011;25547;52.530;13.194;2023-03-21T17:14:13;30.40;;;15.27;;
39874;SDS011;25547;52.530;13.194;2023-03-21T17:16:45;11.20;;;7.15;;
39874;SDS011;25547;52.530;13.194;2023-03-21T17:19:17;16.33;;;10.90;;
39874;SDS011;25547;52.530;13.194;2023-03-21T17:21:48;14.48;;;7.38;;
39874;SDS011;25547;52.530;13.194;2023-03-21T17:24:13;11.80;;;6.70;;